createdAt,value
2018-03-01T00:00:26.599Z,12.60
2018-03-01T00:01:26.612Z,13.10
2018-03-01T00:02:26.609Z,13.60
2018-03-01T00:03:26.618Z,12.90
2018-03-01T00:04:26.616Z,12.80
2018-03-01T00:05:26.616Z,12.20
2018-03-01T00:06:26.614Z,12.70
2018-03-01T00:07:26.622Z,13.20
2018-03-01T00:08:26.625Z,13.30
2018-03-01T00:09:26.633Z,12.90
2018-03-01T00:10:26.624Z,12.90
2018-03-01T00:11:26.632Z,13.10
2018-03-01T00:12:26.630Z,13.20
2018-03-01T00:13:26.644Z,12.40
2018-03-01T00:14:26.646Z,13.30
2018-03-01T00:15:26.643Z,13.00
2018-03-01T00:16:26.659Z,12.60
2018-03-01T00:17:26.648Z,12.70
2018-03-01T00:18:26.676Z,13.30
2018-03-01T00:19:26.667Z,13.40
2018-03-01T00:20:26.666Z,11.80
2018-03-01T00:21:26.661Z,12.40
2018-03-01T00:22:26.674Z,12.80
2018-03-01T00:23:26.675Z,13.40
2018-03-01T00:24:26.673Z,11.10
2018-03-01T00:25:26.681Z,12.10
2018-03-01T00:26:26.678Z,12.90
2018-03-01T00:27:26.694Z,13.20
2018-03-01T00:28:26.686Z,13.60
2018-03-01T00:29:26.690Z,12.90
2018-03-01T00:30:26.693Z,13.10
2018-03-01T00:31:26.696Z,12.80
2018-03-01T00:32:26.693Z,11.80
2018-03-01T00:33:26.700Z,12.80
2018-03-01T00:34:26.719Z,12.10
2018-03-01T00:35:26.707Z,12.90
2018-03-01T00:36:26.716Z,12.90
2018-03-01T00:37:26.718Z,13.00
2018-03-01T00:38:26.722Z,13.20
2018-03-01T00:39:26.718Z,12.60
2018-03-01T00:40:26.727Z,12.80
2018-03-01T00:41:26.732Z,12.50
2018-03-01T00:42:26.731Z,12.60
2018-03-01T00:43:26.741Z,12.50
2018-03-01T00:44:26.737Z,12.70
2018-03-01T00:45:26.749Z,12.80
2018-03-01T00:46:26.742Z,12.40
2018-03-01T00:47:26.751Z,12.90
2018-03-01T00:48:26.747Z,11.90
2018-03-01T00:49:26.756Z,11.30
2018-03-01T00:50:26.753Z,12.10
2018-03-01T00:51:26.776Z,12.70
2018-03-01T00:52:26.757Z,13.30
2018-03-01T00:53:26.767Z,12.40
2018-03-01T00:54:26.763Z,11.80
2018-03-01T00:55:26.773Z,12.40
2018-03-01T00:56:26.769Z,12.80
2018-03-01T00:57:26.778Z,12.10
2018-03-01T00:58:26.780Z,12.70
2018-03-01T00:59:26.783Z,13.20
2018-03-01T01:00:26.793Z,12.00
2018-03-01T01:01:26.787Z,12.60
2018-03-01T01:02:26.802Z,11.40
2018-03-01T01:03:26.800Z,12.60
2018-03-01T01:04:26.809Z,12.20
2018-03-01T01:05:26.803Z,12.00
2018-03-01T01:06:26.808Z,12.10
2018-03-01T01:07:26.809Z,13.20
2018-03-01T01:08:26.812Z,12.50
2018-03-01T01:09:26.820Z,12.30
2018-03-01T01:10:26.818Z,12.10
2018-03-01T01:11:26.814Z,13.20
2018-03-01T01:12:26.824Z,12.60
2018-03-01T01:13:26.820Z,11.60
2018-03-01T01:14:26.829Z,11.80
2018-03-01T01:15:26.825Z,12.50
2018-03-01T01:16:26.833Z,11.70
2018-03-01T01:17:26.842Z,11.80
2018-03-01T01:18:26.852Z,12.70
2018-03-01T01:19:26.856Z,12.30
2018-03-01T01:20:26.846Z,11.10
2018-03-01T01:21:26.862Z,12.20
2018-03-01T01:22:26.852Z,12.00
2018-03-01T01:23:26.866Z,12.20
2018-03-01T01:24:26.866Z,11.80
2018-03-01T01:25:26.864Z,12.10
2018-03-01T01:26:26.860Z,12.70
2018-03-01T01:27:26.876Z,12.50
2018-03-01T01:28:26.866Z,12.00
2018-03-01T01:29:26.878Z,12.30
2018-03-01T01:30:26.879Z,11.80
2018-03-01T01:31:26.881Z,11.70
2018-03-01T01:32:26.884Z,12.50
2018-03-01T01:33:26.893Z,12.50
2018-03-01T01:34:26.887Z,11.80
2018-03-01T01:35:26.891Z,12.00
2018-03-01T01:36:26.900Z,11.50
2018-03-01T01:37:26.904Z,11.80
2018-03-01T01:38:26.902Z,12.10
2018-03-01T01:39:26.901Z,12.60
2018-03-01T01:40:26.901Z,12.20
2018-03-01T01:41:26.907Z,10.80
2018-03-01T01:42:26.923Z,12.60
2018-03-01T01:43:26.914Z,12.30
2018-03-01T01:44:26.926Z,11.70
2018-03-01T01:45:26.937Z,12.50
2018-03-01T01:46:26.926Z,11.40
2018-03-01T01:47:26.930Z,11.90
2018-03-01T01:48:26.968Z,12.00
2018-03-01T01:49:26.928Z,11.90
2018-03-01T01:50:26.944Z,11.60
2018-03-01T01:51:26.934Z,11.70
2018-03-01T01:52:26.949Z,11.90
2018-03-01T01:53:26.946Z,11.60
2018-03-01T01:54:26.948Z,12.30
2018-03-01T01:55:26.951Z,12.20
2018-03-01T01:56:26.948Z,10.90
2018-03-01T01:57:26.954Z,12.00
2018-03-01T01:58:26.959Z,13.10
2018-03-01T01:59:26.961Z,12.50
2018-03-01T02:00:26.964Z,12.20
2018-03-01T02:01:26.957Z,13.40
2018-03-01T02:02:26.967Z,11.90
2018-03-01T02:03:26.978Z,11.80
2018-03-01T02:04:26.976Z,11.90
2018-03-01T02:05:26.968Z,11.80
2018-03-01T02:06:26.976Z,13.00
2018-03-01T02:07:26.982Z,11.30
2018-03-01T02:08:26.984Z,11.70
2018-03-01T02:09:26.976Z,11.50
2018-03-01T02:10:26.990Z,11.70
2018-03-01T02:11:26.983Z,12.00
2018-03-01T02:12:27.009Z,11.70
2018-03-01T02:13:26.992Z,11.90
2018-03-01T02:14:26.996Z,11.70
2018-03-01T02:15:27.002Z,11.40
2018-03-01T02:16:27.005Z,11.80
2018-03-01T02:17:26.996Z,11.50
2018-03-01T02:18:27.010Z,11.90
2018-03-01T02:19:27.004Z,11.00
2018-03-01T02:20:27.013Z,12.20
2018-03-01T02:21:27.019Z,11.50
2018-03-01T02:22:27.024Z,11.70
2018-03-01T02:23:27.023Z,12.20
2018-03-01T02:24:27.047Z,10.80
2018-03-01T02:25:27.017Z,12.10
2018-03-01T02:26:27.027Z,11.50
2018-03-01T02:27:27.028Z,11.70
2018-03-01T02:28:27.049Z,11.90
2018-03-01T02:29:27.029Z,12.50
2018-03-01T02:30:27.045Z,11.80
2018-03-01T02:31:27.041Z,12.60
2018-03-01T02:32:27.045Z,11.90
2018-03-01T02:33:27.053Z,11.90
2018-03-01T02:34:27.055Z,11.50
2018-03-01T02:35:27.049Z,12.30
2018-03-01T02:36:27.058Z,12.10
2018-03-01T02:37:27.058Z,12.20
2018-03-01T02:38:27.070Z,12.00
2018-03-01T02:39:27.058Z,11.70
2018-03-01T02:40:27.065Z,11.90
2018-03-01T02:41:27.070Z,11.70
2018-03-01T02:42:27.071Z,11.80
2018-03-01T02:43:27.080Z,13.20
2018-03-01T02:44:27.082Z,11.90
2018-03-01T02:45:27.072Z,12.30
2018-03-01T02:46:27.090Z,12.10
2018-03-01T02:47:27.076Z,12.30
2018-03-01T02:48:27.091Z,13.10
2018-03-01T02:49:27.085Z,11.50
2018-03-01T02:50:27.099Z,11.30
2018-03-01T02:51:27.092Z,11.60
2018-03-01T02:52:27.101Z,11.30
2018-03-01T02:53:27.098Z,11.90
2018-03-01T02:54:27.112Z,12.00
2018-03-01T02:55:27.106Z,11.60
2018-03-01T02:56:27.105Z,12.00
2018-03-01T02:57:27.106Z,11.80
2018-03-01T02:58:27.153Z,11.90
2018-03-01T02:59:27.112Z,12.00
2018-03-01T03:00:27.120Z,12.00
2018-03-01T03:01:27.112Z,11.20
2018-03-01T03:02:27.133Z,12.30
2018-03-01T03:03:27.119Z,12.30
2018-03-01T03:04:27.121Z,12.50
2018-03-01T03:05:27.130Z,11.70
2018-03-01T03:06:27.120Z,12.80
2018-03-01T03:07:27.133Z,12.10
2018-03-01T03:08:27.129Z,11.60
2018-03-01T03:09:27.133Z,11.70
2018-03-01T03:10:27.141Z,11.80
2018-03-01T03:11:27.144Z,12.10
2018-03-01T03:12:27.143Z,12.50
2018-03-01T03:13:27.152Z,12.50
2018-03-01T03:14:27.143Z,11.30
2018-03-01T03:15:27.155Z,11.00
2018-03-01T03:16:27.152Z,11.60
2018-03-01T03:17:27.158Z,13.00
2018-03-01T03:18:27.155Z,11.80
2018-03-01T03:19:27.167Z,11.70
2018-03-01T03:20:27.167Z,12.70
2018-03-01T03:21:27.169Z,12.00
2018-03-01T03:22:27.164Z,11.70
2018-03-01T03:23:27.178Z,11.80
2018-03-01T03:24:27.178Z,12.40
2018-03-01T03:25:27.170Z,11.90
2018-03-01T03:26:27.176Z,11.70
2018-03-01T03:27:27.170Z,12.40
2018-03-01T03:28:27.178Z,12.30
2018-03-01T03:29:27.179Z,11.90
2018-03-01T03:30:27.200Z,12.10
2018-03-01T03:31:27.186Z,12.10
2018-03-01T03:32:27.197Z,12.00
2018-03-01T03:33:27.188Z,12.50
2018-03-01T03:34:27.206Z,13.00
2018-03-01T03:35:27.196Z,13.20
2018-03-01T03:36:27.208Z,12.20
2018-03-01T03:37:27.208Z,12.00
2018-03-01T03:38:27.206Z,12.30
2018-03-01T03:39:27.207Z,11.30
2018-03-01T03:40:27.216Z,11.70
2018-03-01T03:41:27.215Z,11.50
2018-03-01T03:42:27.220Z,12.70
2018-03-01T03:43:27.230Z,12.60
2018-03-01T03:44:27.209Z,13.70
2018-03-01T03:45:27.221Z,13.40
2018-03-01T03:46:27.222Z,12.10
2018-03-01T03:47:27.232Z,12.80
2018-03-01T03:48:27.231Z,11.90
2018-03-01T03:49:27.234Z,12.20
2018-03-01T03:50:27.231Z,12.00
2018-03-01T03:51:27.241Z,13.10
2018-03-01T03:52:27.230Z,12.10
2018-03-01T03:53:27.250Z,12.70
2018-03-01T03:54:27.234Z,12.50
2018-03-01T03:55:27.247Z,12.30
2018-03-01T03:56:27.244Z,12.60
2018-03-01T03:57:27.255Z,11.40
2018-03-01T03:58:27.251Z,12.10
2018-03-01T03:59:27.255Z,12.50
2018-03-01T04:00:27.258Z,12.00
2018-03-01T04:01:27.260Z,13.00
2018-03-01T04:02:27.258Z,12.00
2018-03-01T04:03:27.259Z,12.90
2018-03-01T04:04:27.267Z,12.10
2018-03-01T04:05:27.271Z,12.50
2018-03-01T04:06:27.270Z,12.60
2018-03-01T04:07:27.261Z,12.70
2018-03-01T04:08:27.271Z,12.90
2018-03-01T04:09:27.270Z,13.00
2018-03-01T04:10:27.279Z,12.40
2018-03-01T04:11:27.280Z,12.30
2018-03-01T04:12:27.289Z,13.50
2018-03-01T04:13:27.280Z,13.20
2018-03-01T04:14:27.281Z,12.20
2018-03-01T04:15:27.291Z,13.30
2018-03-01T04:16:27.280Z,13.00
2018-03-01T04:17:27.292Z,11.60
2018-03-01T04:18:27.287Z,11.70
2018-03-01T04:19:27.299Z,13.50
2018-03-01T04:20:27.302Z,12.70
2018-03-01T04:21:27.299Z,12.80
2018-03-01T04:22:27.302Z,12.60
2018-03-01T04:23:27.306Z,12.30
2018-03-01T04:24:27.310Z,13.50
2018-03-01T04:25:27.315Z,13.30
2018-03-01T04:26:27.312Z,13.50
2018-03-01T04:27:27.328Z,13.40
2018-03-01T04:28:27.322Z,13.00
2018-03-01T04:29:27.308Z,12.40
2018-03-01T04:30:27.322Z,12.40
2018-03-01T04:31:27.320Z,12.70
2018-03-01T04:32:27.333Z,13.90
2018-03-01T04:33:27.329Z,13.00
2018-03-01T04:34:27.332Z,13.00
2018-03-01T04:35:27.328Z,12.70
2018-03-01T04:36:27.335Z,13.10
2018-03-01T04:37:27.336Z,12.40
2018-03-01T04:38:27.338Z,13.20
2018-03-01T04:39:27.347Z,12.50
2018-03-01T04:40:27.336Z,12.60
2018-03-01T04:41:27.339Z,12.90
2018-03-01T04:42:27.343Z,12.70
2018-03-01T04:43:27.346Z,13.10
2018-03-01T04:44:27.343Z,13.20
2018-03-01T04:45:27.360Z,12.70
2018-03-01T04:46:27.348Z,12.00
2018-03-01T04:47:27.360Z,13.40
2018-03-01T04:48:27.359Z,12.20
2018-03-01T04:49:27.361Z,12.50
2018-03-01T04:50:27.364Z,13.00
2018-03-01T04:51:27.365Z,13.40
2018-03-01T04:52:27.361Z,12.60
2018-03-01T04:53:27.367Z,13.70
2018-03-01T04:54:27.370Z,13.20
2018-03-01T04:55:27.370Z,12.80
2018-03-01T04:56:27.379Z,12.90
2018-03-01T04:57:27.379Z,13.90
2018-03-01T04:58:27.389Z,12.90
2018-03-01T04:59:27.374Z,13.00
2018-03-01T05:00:27.390Z,13.30
2018-03-01T05:01:27.384Z,14.50
2018-03-01T05:02:27.396Z,13.50
2018-03-01T05:03:27.396Z,12.20
2018-03-01T05:04:27.387Z,14.40
2018-03-01T05:05:27.397Z,13.30
2018-03-01T05:06:27.398Z,14.40
2018-03-01T05:07:27.399Z,14.40
2018-03-01T05:08:27.399Z,14.30
2018-03-01T05:09:27.407Z,13.30
2018-03-01T05:10:27.404Z,13.20
2018-03-01T05:11:27.412Z,12.10
2018-03-01T05:12:27.407Z,13.60
2018-03-01T05:13:27.411Z,13.30
2018-03-01T05:14:27.415Z,12.90
2018-03-01T05:15:27.407Z,13.50
2018-03-01T05:16:27.416Z,13.30
2018-03-01T05:17:27.417Z,12.60
2018-03-01T05:18:27.418Z,14.20
2018-03-01T05:19:27.432Z,14.30
2018-03-01T05:20:27.428Z,14.10
2018-03-01T05:21:27.421Z,14.00
2018-03-01T05:22:27.455Z,14.10
2018-03-01T05:23:27.432Z,14.40
2018-03-01T05:24:27.431Z,14.30
2018-03-01T05:25:27.441Z,14.20
2018-03-01T05:26:27.432Z,14.90
2018-03-01T05:27:27.449Z,13.20
2018-03-01T05:28:27.440Z,14.70
2018-03-01T05:29:27.442Z,14.00
2018-03-01T05:30:27.442Z,15.30
2018-03-01T05:31:27.446Z,14.40
2018-03-01T05:32:27.452Z,15.10
2018-03-01T05:33:27.444Z,14.70
2018-03-01T05:34:27.452Z,15.40
2018-03-01T05:35:27.451Z,15.10
2018-03-01T05:36:27.459Z,13.70
2018-03-01T05:37:27.452Z,14.20
2018-03-01T05:38:27.464Z,14.70
2018-03-01T05:39:27.455Z,14.80
2018-03-01T05:40:27.461Z,14.70
2018-03-01T05:41:27.464Z,14.70
2018-03-01T05:42:27.464Z,16.00
2018-03-01T05:43:27.476Z,15.90
2018-03-01T05:44:27.472Z,16.10
2018-03-01T05:45:27.474Z,16.20
2018-03-01T05:46:27.481Z,14.70
2018-03-01T05:47:27.726Z,15.20
2018-03-01T05:48:27.482Z,15.70
2018-03-01T05:49:27.485Z,15.30
2018-03-01T05:50:27.480Z,15.70
2018-03-01T05:51:27.490Z,15.00
2018-03-01T05:52:27.490Z,15.50
2018-03-01T05:53:27.481Z,15.70
2018-03-01T05:54:27.499Z,15.00
2018-03-01T05:55:27.488Z,15.80
2018-03-01T05:56:27.483Z,15.20
2018-03-01T05:57:27.497Z,15.20
2018-03-01T05:58:27.487Z,15.40
2018-03-01T05:59:27.506Z,16.10
2018-03-01T06:00:27.496Z,16.80
2018-03-01T06:01:27.508Z,17.30
2018-03-01T06:02:27.505Z,17.40
2018-03-01T06:03:27.507Z,14.90
2018-03-01T06:04:27.505Z,16.10
2018-03-01T06:05:27.511Z,15.50
2018-03-01T06:06:27.517Z,15.60
2018-03-01T06:07:27.515Z,16.70
2018-03-01T06:08:27.525Z,15.90
2018-03-01T06:09:27.522Z,16.30
2018-03-01T06:10:27.529Z,17.30
2018-03-01T06:11:27.523Z,15.80
2018-03-01T06:12:27.512Z,16.40
2018-03-01T06:13:27.532Z,15.60
2018-03-01T06:14:27.519Z,16.60
2018-03-01T06:15:27.533Z,15.30
2018-03-01T06:16:27.535Z,16.80
2018-03-01T06:17:27.533Z,16.50
2018-03-01T06:18:27.530Z,16.20
2018-03-01T06:19:27.537Z,16.20
2018-03-01T06:20:27.535Z,16.10
2018-03-01T06:21:27.534Z,17.10
2018-03-01T06:22:27.584Z,16.50
2018-03-01T06:23:27.540Z,14.90
2018-03-01T06:24:27.550Z,17.10
2018-03-01T06:25:27.541Z,15.20
2018-03-01T06:26:27.555Z,18.40
2018-03-01T06:27:27.546Z,17.50
2018-03-01T06:28:27.551Z,16.30
2018-03-01T06:29:27.556Z,16.70
2018-03-01T06:30:27.547Z,16.00
2018-03-01T06:31:27.558Z,17.30
2018-03-01T06:32:27.561Z,15.90
2018-03-01T06:33:27.548Z,16.20
2018-03-01T06:34:27.573Z,17.10
2018-03-01T06:35:27.555Z,16.50
2018-03-01T06:36:27.564Z,17.40
2018-03-01T06:37:27.563Z,18.20
2018-03-01T06:38:27.568Z,17.60
2018-03-01T06:39:27.581Z,18.30
2018-03-01T06:40:27.565Z,17.00
2018-03-01T06:41:27.569Z,18.40
2018-03-01T06:42:27.567Z,15.70
2018-03-01T06:43:27.581Z,17.60
2018-03-01T06:44:27.584Z,15.50
2018-03-01T06:45:27.586Z,17.40
2018-03-01T06:46:27.580Z,17.10
2018-03-01T06:47:27.584Z,17.70
2018-03-01T06:48:27.589Z,17.70
2018-03-01T06:49:27.594Z,18.60
2018-03-01T06:50:27.588Z,18.10
2018-03-01T06:51:27.588Z,18.40
2018-03-01T06:52:27.598Z,17.80
2018-03-01T06:53:27.594Z,16.60
2018-03-01T06:54:27.601Z,19.10
2018-03-01T06:55:27.593Z,18.30
2018-03-01T06:56:27.590Z,16.50
2018-03-01T06:57:27.612Z,16.90
2018-03-01T06:58:27.601Z,16.70
2018-03-01T06:59:27.609Z,17.50
2018-03-01T07:00:27.604Z,18.50
2018-03-01T07:01:27.617Z,17.30
2018-03-01T07:02:27.613Z,17.70
2018-03-01T07:03:27.616Z,17.70
2018-03-01T07:04:27.620Z,18.00
2018-03-01T07:05:27.626Z,16.20
2018-03-01T07:06:27.616Z,17.10
2018-03-01T07:07:27.616Z,18.10
2018-03-01T07:08:27.625Z,17.60
2018-03-01T07:09:27.626Z,17.60
2018-03-01T07:10:27.640Z,18.90
2018-03-01T07:11:27.626Z,18.70
2018-03-01T07:12:27.635Z,18.00
2018-03-01T07:13:27.649Z,17.40
2018-03-01T07:14:27.634Z,20.00
2018-03-01T07:15:27.652Z,18.70
2018-03-01T07:16:27.636Z,19.20
2018-03-01T07:17:27.642Z,18.20
2018-03-01T07:18:27.640Z,16.50
2018-03-01T07:19:27.659Z,17.30
2018-03-01T07:20:27.642Z,18.40
2018-03-01T07:21:27.653Z,17.30
2018-03-01T07:22:27.652Z,17.60
2018-03-01T07:23:27.661Z,18.00
2018-03-01T07:24:27.662Z,17.70
2018-03-01T07:25:27.662Z,18.40
2018-03-01T07:26:27.660Z,19.00
2018-03-01T07:27:27.666Z,16.60
2018-03-01T07:28:27.671Z,16.30
2018-03-01T07:29:27.664Z,17.70
2018-03-01T07:30:27.679Z,17.10
2018-03-01T07:31:27.670Z,17.10
2018-03-01T07:32:27.684Z,16.70
2018-03-01T07:33:27.676Z,18.10
2018-03-01T07:34:27.687Z,16.00
2018-03-01T07:35:27.676Z,18.60
2018-03-01T07:36:27.687Z,17.20
2018-03-01T07:37:27.687Z,18.00
2018-03-01T07:38:27.688Z,17.10
2018-03-01T07:39:27.695Z,17.90
2018-03-01T07:40:27.699Z,18.30
2018-03-01T07:41:27.689Z,18.40
2018-03-01T07:42:27.709Z,17.20
2018-03-01T07:43:27.698Z,17.80
2018-03-01T07:44:27.698Z,17.30
2018-03-01T07:45:27.766Z,17.30
2018-03-01T07:46:27.707Z,17.80
2018-03-01T07:47:27.715Z,17.50
2018-03-01T07:48:27.715Z,16.60
2018-03-01T07:49:27.711Z,17.20
2018-03-01T07:50:27.717Z,16.30
2018-03-01T07:51:27.717Z,17.50
2018-03-01T07:52:27.719Z,16.80
2018-03-01T07:53:27.728Z,16.40
2018-03-01T07:54:27.728Z,16.60
2018-03-01T07:55:27.731Z,18.30
2018-03-01T07:56:27.737Z,16.20
2018-03-01T07:57:27.739Z,17.40
2018-03-01T07:58:27.735Z,16.80
2018-03-01T07:59:27.740Z,17.00
2018-03-01T08:00:27.739Z,17.20
2018-03-01T08:01:27.750Z,18.80
2018-03-01T08:02:27.742Z,16.50
2018-03-01T08:03:27.755Z,17.50
2018-03-01T08:04:27.755Z,16.50
2018-03-01T08:05:27.763Z,17.80
2018-03-01T08:06:27.754Z,18.60
2018-03-01T08:07:27.765Z,16.00
2018-03-01T08:08:27.777Z,17.80
2018-03-01T08:09:27.774Z,16.20
2018-03-01T08:10:27.762Z,17.30
2018-03-01T08:11:27.777Z,18.20
2018-03-01T08:12:27.772Z,18.60
2018-03-01T08:13:27.787Z,17.50
2018-03-01T08:14:27.785Z,17.00
2018-03-01T08:15:27.786Z,19.00
2018-03-01T08:16:27.776Z,16.60
2018-03-01T08:17:27.802Z,17.10
2018-03-01T08:18:27.782Z,17.00
2018-03-01T08:19:27.794Z,16.70
2018-03-01T08:20:27.803Z,17.30
2018-03-01T08:21:27.795Z,16.80
2018-03-01T08:22:27.811Z,16.50
2018-03-01T08:23:27.808Z,17.10
2018-03-01T08:24:27.813Z,18.90
2018-03-01T08:25:27.850Z,17.00
2018-03-01T08:26:27.816Z,16.80
2018-03-01T08:27:27.825Z,16.50
2018-03-01T08:28:27.824Z,18.20
2018-03-01T08:29:27.825Z,17.50
2018-03-01T08:30:27.833Z,16.90
2018-03-01T08:31:27.823Z,17.50
2018-03-01T08:32:27.834Z,17.70
2018-03-01T08:33:27.834Z,16.90
2018-03-01T08:34:27.837Z,17.90
2018-03-01T08:35:27.856Z,16.90
2018-03-01T08:36:27.855Z,17.60
2018-03-01T08:37:27.876Z,16.70
2018-03-01T08:38:27.850Z,17.10
2018-03-01T08:39:27.855Z,17.10
2018-03-01T08:40:27.852Z,17.00
2018-03-01T08:41:27.864Z,15.70
2018-03-01T08:42:27.865Z,18.00
2018-03-01T08:43:27.873Z,15.70
2018-03-01T08:44:27.878Z,16.60
2018-03-01T08:45:27.872Z,15.50
2018-03-01T08:46:27.872Z,15.90
2018-03-01T08:47:27.884Z,16.30
2018-03-01T08:48:27.880Z,16.70
2018-03-01T08:49:27.886Z,15.80
2018-03-01T08:50:27.883Z,17.90
2018-03-01T08:51:27.896Z,16.80
2018-03-01T08:52:27.891Z,17.20
2018-03-01T08:53:27.896Z,19.30
2018-03-01T08:54:27.910Z,17.40
2018-03-01T08:55:27.905Z,16.10
2018-03-01T08:56:27.920Z,16.50
2018-03-01T08:57:27.906Z,16.60
2018-03-01T08:58:27.922Z,18.90
2018-03-01T08:59:27.917Z,16.50
2018-03-01T09:00:27.924Z,15.00
2018-03-01T09:01:27.929Z,15.70
2018-03-01T09:02:27.935Z,16.40
2018-03-01T09:03:27.938Z,16.60
2018-03-01T09:04:27.934Z,18.60
2018-03-01T09:05:27.944Z,17.10
2018-03-01T09:06:27.945Z,15.50
2018-03-01T09:07:27.943Z,16.00
2018-03-01T09:08:27.940Z,16.40
2018-03-01T09:09:27.955Z,16.70
2018-03-01T09:10:27.952Z,16.70
2018-03-01T09:11:27.957Z,15.80
2018-03-01T09:12:27.965Z,15.30
2018-03-01T09:13:27.958Z,15.80
2018-03-01T09:14:27.980Z,15.80
2018-03-01T09:15:27.965Z,15.40
2018-03-01T09:16:27.975Z,17.10
2018-03-01T09:17:27.978Z,16.30
2018-03-01T09:18:27.978Z,16.50
2018-03-01T09:19:28.004Z,16.00
2018-03-01T09:20:27.987Z,16.50
2018-03-01T09:21:28.000Z,16.20
2018-03-01T09:22:28.002Z,15.50
2018-03-01T09:23:27.997Z,15.70
2018-03-01T09:24:28.005Z,15.70
2018-03-01T09:25:28.006Z,15.90
2018-03-01T09:26:28.013Z,15.10
2018-03-01T09:27:28.020Z,16.90
2018-03-01T09:28:28.023Z,17.00
2018-03-01T09:29:28.016Z,16.00
2018-03-01T09:30:28.029Z,16.30
2018-03-01T09:31:28.031Z,14.90
2018-03-01T09:32:28.035Z,16.00
2018-03-01T09:33:28.049Z,16.50
2018-03-01T09:34:28.049Z,15.00
2018-03-01T09:35:28.054Z,17.00
2018-03-01T09:36:28.060Z,16.90
2018-03-01T09:37:28.055Z,17.50
2018-03-01T09:38:28.065Z,16.40
2018-03-01T09:39:28.067Z,14.90
2018-03-01T09:40:28.062Z,15.90
2018-03-01T09:41:28.083Z,16.30
2018-03-01T09:42:28.074Z,16.60
2018-03-01T09:43:28.079Z,17.00
2018-03-01T09:44:28.088Z,15.00
2018-03-01T09:45:28.086Z,15.50
2018-03-01T09:46:28.099Z,17.10
2018-03-01T09:47:28.098Z,14.70
2018-03-01T09:48:28.096Z,15.00
2018-03-01T09:49:28.108Z,15.30
2018-03-01T09:50:28.099Z,16.00
2018-03-01T09:51:28.125Z,15.90
2018-03-01T09:52:28.121Z,15.30
2018-03-01T09:53:28.114Z,14.10
2018-03-01T09:54:28.129Z,15.10
2018-03-01T09:55:28.124Z,16.70
2018-03-01T09:56:28.131Z,16.60
2018-03-01T09:57:28.143Z,15.90
2018-03-01T09:58:28.133Z,16.20
2018-03-01T09:59:28.147Z,16.90
2018-03-01T10:00:28.149Z,15.90
2018-03-01T10:01:28.160Z,15.90
2018-03-01T10:02:28.164Z,15.70
2018-03-01T10:03:28.156Z,14.40
2018-03-01T10:04:28.178Z,16.90
2018-03-01T10:05:28.177Z,16.00
2018-03-01T10:06:28.166Z,15.40
2018-03-01T10:07:28.183Z,17.00
2018-03-01T10:08:28.176Z,15.30
2018-03-01T10:09:28.184Z,16.10
2018-03-01T10:10:28.194Z,15.30
2018-03-01T10:11:28.190Z,14.70
2018-03-01T10:12:28.204Z,15.00
2018-03-01T10:13:28.212Z,14.90
2018-03-01T10:14:28.204Z,16.10
2018-03-01T10:15:28.216Z,14.20
2018-03-01T10:16:28.214Z,14.50
2018-03-01T10:17:28.221Z,15.00
2018-03-01T10:18:28.236Z,14.80
2018-03-01T10:19:28.220Z,15.60
2018-03-01T10:20:28.237Z,13.50
2018-03-01T10:21:28.246Z,14.70
2018-03-01T10:22:28.236Z,15.50
2018-03-01T10:23:28.265Z,15.10
2018-03-01T10:24:28.260Z,13.40
2018-03-01T10:25:28.254Z,14.60
2018-03-01T10:26:28.263Z,15.40
2018-03-01T10:27:28.268Z,14.50
2018-03-01T10:28:28.265Z,15.20
2018-03-01T10:29:28.277Z,14.10
2018-03-01T10:30:28.285Z,14.00
2018-03-01T10:31:28.283Z,14.60
2018-03-01T10:32:28.294Z,14.10
2018-03-01T10:33:28.296Z,12.80
2018-03-01T10:34:28.301Z,14.10
2018-03-01T10:35:28.302Z,13.90
2018-03-01T10:36:28.315Z,14.10
2018-03-01T10:37:28.314Z,13.30
2018-03-01T10:38:28.313Z,12.50
2018-03-01T10:39:28.328Z,11.30
2018-03-01T10:40:28.329Z,12.00
2018-03-01T10:41:28.340Z,11.80
2018-03-01T10:42:28.349Z,12.00
2018-03-01T10:43:28.334Z,12.00
2018-03-01T10:44:28.346Z,12.50
2018-03-01T10:45:28.356Z,12.60
2018-03-01T10:46:28.360Z,12.30
2018-03-01T10:47:28.365Z,12.20
2018-03-01T10:48:28.372Z,12.90
2018-03-01T10:49:28.366Z,13.40
2018-03-01T10:50:28.379Z,13.40
2018-03-01T10:51:28.381Z,12.80
2018-03-01T10:52:28.381Z,12.20
2018-03-01T10:53:28.395Z,13.50
2018-03-01T10:54:28.396Z,12.40
2018-03-01T10:55:28.411Z,12.80
2018-03-01T10:56:28.406Z,13.10
2018-03-01T10:57:28.411Z,12.30
2018-03-01T10:58:28.432Z,13.30
2018-03-01T10:59:28.478Z,14.70
2018-03-01T11:00:28.429Z,12.80
2018-03-01T11:01:28.433Z,13.30
2018-03-01T11:02:28.435Z,12.90
2018-03-01T11:03:28.440Z,12.20
2018-03-01T11:04:28.446Z,12.80
2018-03-01T11:05:28.445Z,13.30
2018-03-01T11:06:28.456Z,12.60
2018-03-01T11:07:28.469Z,13.50
2018-03-01T11:08:28.464Z,12.10
2018-03-01T11:09:28.471Z,11.20
2018-03-01T11:10:28.483Z,11.20
2018-03-01T11:11:28.481Z,11.30
2018-03-01T11:12:28.479Z,11.60
2018-03-01T11:13:28.495Z,12.10
2018-03-01T11:14:28.502Z,11.00
2018-03-01T11:15:28.505Z,11.10
2018-03-01T11:16:28.518Z,11.80
2018-03-01T11:17:28.512Z,10.80
2018-03-01T11:18:28.527Z,10.80
2018-03-01T11:19:28.517Z,11.20
2018-03-01T11:20:28.527Z,11.60
2018-03-01T11:21:28.541Z,10.40
2018-03-01T11:22:28.531Z,11.30
2018-03-01T11:23:28.543Z,11.60
2018-03-01T11:24:28.558Z,12.10
2018-03-01T11:25:28.545Z,10.90
2018-03-01T11:26:28.568Z,11.50
2018-03-01T11:27:28.565Z,10.90
2018-03-01T11:28:28.573Z,11.90
2018-03-01T11:29:28.575Z,12.50
2018-03-01T11:30:28.591Z,12.10
2018-03-01T11:31:28.596Z,11.30
2018-03-01T11:32:28.598Z,11.60
2018-03-01T11:33:28.606Z,11.20
2018-03-01T11:34:28.604Z,11.60
2018-03-01T11:35:28.608Z,11.60
2018-03-01T11:36:28.606Z,11.80
2018-03-01T11:37:28.618Z,12.20
2018-03-01T11:38:28.637Z,12.30
2018-03-01T11:39:28.638Z,13.80
2018-03-01T11:40:28.634Z,13.40
2018-03-01T11:41:28.638Z,11.90
2018-03-01T11:42:28.654Z,12.30
2018-03-01T11:43:28.654Z,11.70
2018-03-01T11:44:28.654Z,10.60
2018-03-01T11:45:28.671Z,11.20
2018-03-01T11:46:28.668Z,10.90
2018-03-01T11:47:28.687Z,11.80
2018-03-01T11:48:28.678Z,10.80
2018-03-01T11:49:28.689Z,11.00
2018-03-01T11:50:28.702Z,11.80
2018-03-01T11:51:28.703Z,10.70
2018-03-01T11:52:28.703Z,11.20
2018-03-01T11:53:28.716Z,11.40
2018-03-01T11:54:28.715Z,12.20
2018-03-01T11:55:28.727Z,12.70
2018-03-01T11:56:28.724Z,12.50
2018-03-01T11:57:28.729Z,12.10
2018-03-01T11:58:28.748Z,13.30
2018-03-01T11:59:28.748Z,11.90
2018-03-01T12:00:28.746Z,11.50
2018-03-01T12:01:28.758Z,11.00
2018-03-01T12:02:28.760Z,11.30
2018-03-01T12:03:28.774Z,11.70
2018-03-01T12:04:28.771Z,11.60
2018-03-01T12:05:28.783Z,11.00
2018-03-01T12:06:28.818Z,11.00
2018-03-01T12:07:28.794Z,13.00
2018-03-01T12:08:28.794Z,11.10
2018-03-01T12:09:28.810Z,10.60
2018-03-01T12:10:28.836Z,11.00
2018-03-01T12:11:28.826Z,10.60
2018-03-01T12:12:28.818Z,12.00
2018-03-01T12:13:28.826Z,10.50
2018-03-01T12:14:28.840Z,10.30
2018-03-01T12:15:28.844Z,10.80
2018-03-01T12:16:28.841Z,11.00
2018-03-01T12:17:28.851Z,10.30
2018-03-01T12:18:28.859Z,10.10
2018-03-01T12:19:28.871Z,10.90
2018-03-01T12:20:28.864Z,10.00
2018-03-01T12:21:28.869Z,10.10
2018-03-01T12:22:28.880Z,10.30
2018-03-01T12:23:28.898Z,10.00
2018-03-01T12:24:28.881Z,8.90
2018-03-01T12:25:28.895Z,10.60
2018-03-01T12:26:28.901Z,10.30
2018-03-01T12:27:28.914Z,11.50
2018-03-01T12:28:28.912Z,10.90
2018-03-01T12:29:28.916Z,12.90
2018-03-01T12:30:28.930Z,11.70
2018-03-01T12:31:28.936Z,12.80
2018-03-01T12:32:28.933Z,11.60
2018-03-01T12:33:28.940Z,11.70
2018-03-01T12:34:28.944Z,11.80
2018-03-01T12:35:28.959Z,11.40
2018-03-01T12:36:28.972Z,10.80
2018-03-01T12:37:28.959Z,11.80
2018-03-01T12:38:28.974Z,11.50
2018-03-01T12:39:28.982Z,12.60
2018-03-01T12:40:28.989Z,11.30
2018-03-01T12:41:28.991Z,12.30
2018-03-01T12:42:28.991Z,11.80
2018-03-01T12:43:29.007Z,11.30
2018-03-01T12:44:29.013Z,11.20
2018-03-01T12:45:29.018Z,10.50
2018-03-01T12:46:29.020Z,10.50
2018-03-01T12:47:29.025Z,11.50
2018-03-01T12:48:29.034Z,10.50
2018-03-01T12:49:29.052Z,10.60
2018-03-01T12:50:29.039Z,10.90
2018-03-01T12:51:29.053Z,11.70
2018-03-01T12:52:29.065Z,11.50